Weather at Sandusky County Regional Airport

Public forecast

Using degrees Fahrenheit for public forecast. Weather courtesy of forecast.io.

Closest aviation weather report (METAR) to Sandusky County Regional Airport

Closest report is Carl R Keller Field, 15.3 nm (28.3 km) NNE. Retrieved 2021/02/27 01:35 UTC (1 hour ago):

KPCW 270135Z AUTO 12006KT 10SM BKN095 01/M05 A3005 RMK AO2

Closest aviation forecast (TAF) to Sandusky County Regional Airport

Forecast is more than 6 hours old.

Closest forecast is Findlay Airport, 33.2 nm (61.5 km) WSW. Retrieved 2021/02/26 18:30 UTC (8 hours ago):

TAF KFDY 261729Z 2618/2718 14010KT P6SM SKC FM270100 12008KT P6SM VCSH OVC120 FM270400 15010KT 4SM -SHRA OVC020 FM270600 17012G20KT 4SM -SHRA BR OVC015 TEMPO 2706/2710 3SM -SHRA OVC008 FM271200 22009KT P6SM VCSH OVC015 FM271500 23009KT 4SM BR OVC008